Watsonville, CA

2:59 AM PDT on August 31, 2014 (GMT -0700)
Watsonville Municipal | Change Station
CLOSE
Current Station
Airport
Location: Watsonville,
Elevation: 161 ft
Nearby Weather Stations

Elev 161 ft 36.94 °N, 121.79 °W | Updated 6 minutes ago

Clear
Clear
59 °F
Feels Like 59 °F
N
4
Wind Variable Wind from NW

Today
High -- | Low -- °F
--% Chance of Precip.
Yesterday
High -- | Low -- °F
Precip. -- in
6:37 AM 7:36 PM
Waxing Crescent, 29% visible
Pressure 29.92 in
Visibility 10.0 miles
Clouds Clear
Dew Point 54 °F
Humidity 83%
Rainfall 0.00 in
Snow Depth Not available.
UV 0 out of 12
Pollen 7.70 out of 12
Air Quality Not available.
Flu Activity Not available.
METAR KWVI 310953Z AUTO 31003KT 10SM CLR 15/12 A2992 RMK AO2 SLP131 T01500122

More Conditions Fewer Conditions

Pressure 29.92 in
Visibility 10.0 miles
Clouds Clear
Dew Point 54 °F
Humidity 83%
Rainfall 0.00 in
Snow Depth Not available.
UV 0 out of 12
Pollen 7.70 out of 12
Air Quality Not available.
Flu Activity Not available.
METAR KWVI 310953Z AUTO 31003KT 10SM CLR 15/12 A2992 RMK AO2 SLP131 T01500122

More Conditions Fewer Conditions

10-Day Weather Forecast

Almanac

Astronomy

Aug. 31, 2014 Rise Set
Actual Time 6:37 AM PDT 7:36 PM PDT
Civil Twilight 6:10 AM PDT 8:03 PM PDT
Nautical Twilight 5:39 AM PDT 8:34 PM PDT
Astronomical Twilight 5:06 AM PDT 9:07 PM PDT
Moon 12:20 PM PDT 11:05 PM PDT
Length of Visible Light 13h 52m
Length of Day
12h 59m
Tomorrow will be 2m 15s shorter.
Waxing Crescent, 29% of the Moon is Illuminated
Today
Waxing Crescent
Sep 2
First Quarter
Sep 8
Full
Sep 15
Last Quarter
Sep 24
New

Today's Extremes

State Highs State Lows

Community

WunderPhotos

Upload Photos

1,748,834 photos uploaded!

Nearby

Snow Depth

Station Depth Elevation
Leavitt Lake 0 in 9400 ft
Blue Lakes 0 in 8000 ft
Leavitt Meadows 1 in 7200 ft
Forestdale Creek 0 in 8029 ft
Summit Meadow 1 in 9122 ft

Earthquake Activity

City Distance Mag. Time & Date
Napa, California 94 miles 3.4 1:56 AM PDT
2014-08-31
Gonzales, California 36 miles 2.7 9:48 PM PDT
2014-08-30
Ridgemark, California 31 miles 3.4 4:32 PM PDT
2014-08-29
The Geysers, California 141 miles 2.7 2:53 PM PDT
2014-08-29
Minimum magnitude displayed is 2.5.

Coastal Water Temperatures

Place Temperature
Monterey, CA 64.9 °F
Redwood City, CA 73.0 °F

Nearby Weather Stations